Opal, WY

7:23 PM MDT on August 03, 2015 (GMT -0600)
Kemmerer | | Change Station
CLOSE
Current Station
Personal Weather Station
Location: Kemmerer, WY
Elevation: 6985 ft
Nearby Weather Stations

Elev 6985 ft 41.80 °N, 110.54 °W | Updated 14 seconds ago

Overcast
Overcast
56.3 °F
Feels Like 56.3 °F
N
22.0
Wind Variable Wind from NW
Gusts 24.0 mph

Today
High -- | Low -- °F
--% Chance of Precip.
Yesterday
High -- | Low -- °F
Precip. -- in
6:17 AM 8:37 PM
Waning Gibbous, 82% visible
Pressure 30.18 in
Visibility 10.0 miles
Clouds Scattered Clouds 1300 ft
Overcast 2700 ft
Dew Point 49 °F
Humidity 76%
Rainfall 0.21 in
Snow Depth Not available.
UV 0 out of 12
Pollen 5.50 out of 12
Air Quality Not available.
Flu Activity Not available.
METAR KEMM 040115Z AUTO 27015G24KT 10SM SCT013 OVC027 12/10 A3018 RMK AO2

More Conditions Fewer Conditions

Pressure 30.18 in
Visibility 10.0 miles
Clouds Scattered Clouds 1300 ft
Overcast 2700 ft
Dew Point 49 °F
Humidity 76%
Rainfall 0.21 in
Snow Depth Not available.
UV 0 out of 12
Pollen 5.50 out of 12
Air Quality Not available.
Flu Activity Not available.
METAR KEMM 040115Z AUTO 27015G24KT 10SM SCT013 OVC027 12/10 A3018 RMK AO2

More Conditions Fewer Conditions

10-Day Weather Forecast

×

Almanac

Astronomy

Aug. 03, 2015 Rise Set
Actual Time
Civil Twilight
Nautical Twilight
Astronomical Twilight
Moon
Length of Visible Light
Length of Day
Tomorrow will be .
, % of the Moon is Illuminated

Today's Extremes

State Highs State Lows

Community

WunderPhotos

Upload Photos

1,843,814 photos uploaded!

WunderBlogs® & News

Nearby

Air Quality

  Air Quality AQ Index Pollutant
Not available.

Snow Depth

Station Depth Elevation

Earthquake Activity

City Distance Mag. Time & Date
Minimum magnitude displayed is 2.5.

Coastal Water Temperatures

Place Temperature

Stations

Nearby Weather Stations

Station Location Temp. Windchill Dew Point Humidity Wind Precip. Elev Updated Type